AAL156 KSAN-KPHX
Flight info
| Callsign | AAL156 |
|---|---|
| Flight time | 0h 57m |
| Altitude | 37000 |
| Route | ZZOOO4 HOGGZ HYDRR1 |
| Aircraft | B738/M-SDE2E3FGHIRWXY/LB1 |
Departure
| Time | 2026-04-20 18:53 |
|---|---|
| Airport | San Diego International Airport (KSAN) |
Arrival
| Time | 2026-04-20 19:50 |
|---|---|
| Airport | Phoenix Sky Harbor International Airport (KPHX) |
| Time | Latitude | Longitude | Altitude | Speed | Heading |
|---|---|---|---|---|---|
| 2026-04-20 18:12 | 32.73394 | -117.20049 | 25 ft | 0 kts | 255° |
| 2026-04-20 18:42 | 32.73394 | -117.20046 | 25 ft | 2 kts | 255° |
| 2026-04-20 18:43 | 32.73400 | -117.20017 | 28 ft | 4 kts | 262° |
| 2026-04-20 18:43 | 32.73401 | -117.19996 | 31 ft | 4 kts | 280° |
| 2026-04-20 18:43 | 32.73393 | -117.19974 | 28 ft | 4 kts | 348° |
| 2026-04-20 18:43 | 32.73385 | -117.19973 | 28 ft | 1 kts | 12° |
| 2026-04-20 18:46 | 32.73410 | -117.19966 | 26 ft | 9 kts | 12° |
| 2026-04-20 18:47 | 32.73470 | -117.19933 | 29 ft | 10 kts | 53° |
| 2026-04-20 18:47 | 32.73464 | -117.19844 | 27 ft | 15 kts | 104° |
| 2026-04-20 18:47 | 32.73420 | -117.19653 | 26 ft | 28 kts | 106° |
| 2026-04-20 18:47 | 32.73365 | -117.19430 | 26 ft | 27 kts | 106° |
| 2026-04-20 18:48 | 32.73312 | -117.19213 | 24 ft | 29 kts | 106° |
| 2026-04-20 18:48 | 32.73254 | -117.18972 | 28 ft | 30 kts | 106° |
| 2026-04-20 18:48 | 32.73197 | -117.18737 | 28 ft | 29 kts | 106° |
| 2026-04-20 18:48 | 32.73144 | -117.18517 | 29 ft | 27 kts | 106° |
| 2026-04-20 18:49 | 32.73094 | -117.18310 | 28 ft | 25 kts | 106° |
| 2026-04-20 18:49 | 32.73047 | -117.18117 | 21 ft | 23 kts | 105° |
| 2026-04-20 18:49 | 32.73003 | -117.17936 | 21 ft | 22 kts | 105° |
| 2026-04-20 18:49 | 32.72957 | -117.17761 | 20 ft | 22 kts | 110° |
| 2026-04-20 18:50 | 32.72948 | -117.17698 | 21 ft | 4 kts | 74° |
| 2026-04-20 18:50 | 32.72959 | -117.17661 | 23 ft | 5 kts | 69° |
| 2026-04-20 18:50 | 32.72975 | -117.17626 | 24 ft | 5 kts | 52° |
| 2026-04-20 18:50 | 32.73004 | -117.17610 | 26 ft | 5 kts | 4° |
| 2026-04-20 18:51 | 32.73030 | -117.17629 | 24 ft | 5 kts | 302° |
| 2026-04-20 18:51 | 32.73040 | -117.17671 | 24 ft | 5 kts | 285° |
| 2026-04-20 18:51 | 32.73042 | -117.17679 | 22 ft | 0 kts | 285° |
| 2026-04-20 18:52 | 32.73082 | -117.17783 | 23 ft | 44 kts | 292° |
| 2026-04-20 18:52 | 32.73220 | -117.18404 | 29 ft | 110 kts | 285° |
| 2026-04-20 18:52 | 32.73487 | -117.19487 | 27 ft | 161 kts | 288° |
| 2026-04-20 18:53 | 32.73834 | -117.20847 | 388 ft | 176 kts | 287° |
| 2026-04-20 18:53 | 32.74205 | -117.22215 | 1117 ft | 175 kts | 290° |
| 2026-04-20 18:53 | 32.74617 | -117.23652 | 1523 ft | 195 kts | 289° |
| 2026-04-20 18:53 | 32.75053 | -117.25230 | 2109 ft | 205 kts | 288° |
| 2026-04-20 18:54 | 32.75495 | -117.26910 | 2590 ft | 223 kts | 286° |
| 2026-04-20 18:54 | 32.75815 | -117.28834 | 2799 ft | 248 kts | 276° |
| 2026-04-20 18:54 | 32.75817 | -117.30874 | 3584 ft | 243 kts | 264° |
| 2026-04-20 18:54 | 32.75524 | -117.32816 | 4399 ft | 238 kts | 246° |
| 2026-04-20 18:55 | 32.74607 | -117.34348 | 5124 ft | 229 kts | 216° |
| 2026-04-20 18:55 | 32.73171 | -117.35272 | 5477 ft | 237 kts | 188° |
| 2026-04-20 18:55 | 32.71580 | -117.35199 | 6026 ft | 229 kts | 154° |
| 2026-04-20 18:55 | 32.70355 | -117.34163 | 6941 ft | 206 kts | 124° |
| 2026-04-20 18:56 | 32.69622 | -117.32801 | 7886 ft | 191 kts | 119° |
| 2026-04-20 18:56 | 32.68813 | -117.31512 | 8381 ft | 204 kts | 127° |
| 2026-04-20 18:56 | 32.67754 | -117.30228 | 8566 ft | 230 kts | 130° |
| 2026-04-20 18:56 | 32.66590 | -117.28847 | 9038 ft | 241 kts | 129° |
| 2026-04-20 18:57 | 32.65411 | -117.27403 | 9708 ft | 245 kts | 129° |
| 2026-04-20 18:57 | 32.64235 | -117.25935 | 10449 ft | 246 kts | 128° |
| 2026-04-20 18:57 | 32.63265 | -117.24300 | 11154 ft | 242 kts | 107° |
| 2026-04-20 18:57 | 32.62871 | -117.22298 | 11435 ft | 261 kts | 95° |
| 2026-04-20 18:58 | 32.62678 | -117.20057 | 11624 ft | 284 kts | 94° |
| 2026-04-20 18:58 | 32.62491 | -117.17639 | 11872 ft | 304 kts | 94° |
| 2026-04-20 18:58 | 32.62279 | -117.15110 | 12459 ft | 311 kts | 94° |
| 2026-04-20 18:58 | 32.62055 | -117.12587 | 13225 ft | 312 kts | 94° |
| 2026-04-20 18:59 | 32.62089 | -117.10024 | 14004 ft | 312 kts | 79° |
| 2026-04-20 18:59 | 32.62730 | -117.07578 | 14843 ft | 311 kts | 69° |
| 2026-04-20 18:59 | 32.63539 | -117.05197 | 15669 ft | 311 kts | 68° |
| 2026-04-20 18:59 | 32.64343 | -117.02814 | 16474 ft | 311 kts | 67° |
| 2026-04-20 19:00 | 32.65137 | -117.00426 | 17235 ft | 312 kts | 66° |
| 2026-04-20 19:00 | 32.65930 | -116.98021 | 17923 ft | 314 kts | 66° |
| 2026-04-20 19:00 | 32.66602 | -116.95534 | 18576 ft | 321 kts | 74° |
| 2026-04-20 19:00 | 32.66786 | -116.92851 | 19213 ft | 330 kts | 81° |
| 2026-04-20 19:01 | 32.66834 | -116.90140 | 19804 ft | 335 kts | 81° |
| 2026-04-20 19:01 | 32.66871 | -116.87352 | 20316 ft | 340 kts | 80° |
| 2026-04-20 19:01 | 32.66916 | -116.84524 | 20810 ft | 345 kts | 79° |
| 2026-04-20 19:01 | 32.66974 | -116.81656 | 21351 ft | 349 kts | 78° |
| 2026-04-20 19:02 | 32.67039 | -116.78753 | 21869 ft | 353 kts | 78° |
| 2026-04-20 19:02 | 32.67107 | -116.75826 | 22397 ft | 357 kts | 78° |
| 2026-04-20 19:02 | 32.67131 | -116.72858 | 22926 ft | 362 kts | 80° |
| 2026-04-20 19:02 | 32.67087 | -116.69853 | 23426 ft | 366 kts | 81° |
| 2026-04-20 19:03 | 32.67029 | -116.66809 | 23882 ft | 370 kts | 81° |
| 2026-04-20 19:03 | 32.66964 | -116.63736 | 24267 ft | 374 kts | 81° |
| 2026-04-20 19:03 | 32.66901 | -116.60681 | 24766 ft | 376 kts | 81° |
| 2026-04-20 19:03 | 32.66841 | -116.57572 | 25258 ft | 378 kts | 81° |
| 2026-04-20 19:04 | 32.66786 | -116.54442 | 25719 ft | 382 kts | 81° |
| 2026-04-20 19:04 | 32.66722 | -116.51266 | 26123 ft | 385 kts | 81° |
| 2026-04-20 19:04 | 32.66673 | -116.48080 | 26568 ft | 387 kts | 81° |
| 2026-04-20 19:04 | 32.66622 | -116.44885 | 26975 ft | 389 kts | 81° |
| 2026-04-20 19:05 | 32.66595 | -116.41665 | 27345 ft | 389 kts | 78° |
| 2026-04-20 19:05 | 32.66791 | -116.38479 | 27695 ft | 387 kts | 75° |
| 2026-04-20 19:05 | 32.67104 | -116.35314 | 28058 ft | 388 kts | 73° |
| 2026-04-20 19:05 | 32.67445 | -116.32132 | 28395 ft | 390 kts | 74° |
| 2026-04-20 19:06 | 32.67781 | -116.28914 | 28721 ft | 393 kts | 74° |
| 2026-04-20 19:06 | 32.68099 | -116.25682 | 29046 ft | 396 kts | 75° |
| 2026-04-20 19:06 | 32.68399 | -116.22482 | 29482 ft | 395 kts | 75° |
| 2026-04-20 19:06 | 32.68693 | -116.19216 | 29972 ft | 392 kts | 75° |
| 2026-04-20 19:07 | 32.68977 | -116.16031 | 30408 ft | 391 kts | 75° |
| 2026-04-20 19:07 | 32.69263 | -116.12827 | 30808 ft | 391 kts | 75° |
| 2026-04-20 19:07 | 32.69551 | -116.09606 | 31180 ft | 391 kts | 75° |
| 2026-04-20 19:07 | 32.69835 | -116.06404 | 31605 ft | 390 kts | 75° |
| 2026-04-20 19:08 | 32.70119 | -116.03201 | 31911 ft | 391 kts | 75° |
| 2026-04-20 19:08 | 32.70705 | -115.96829 | 31922 ft | 393 kts | 75° |
| 2026-04-20 19:09 | 32.71297 | -115.90428 | 31924 ft | 388 kts | 75° |
| 2026-04-20 19:09 | 32.71884 | -115.84066 | 31928 ft | 387 kts | 75° |
| 2026-04-20 19:10 | 32.72463 | -115.77757 | 31932 ft | 387 kts | 75° |
| 2026-04-20 19:10 | 32.73043 | -115.71387 | 31935 ft | 388 kts | 75° |
| 2026-04-20 19:11 | 32.73621 | -115.64997 | 31930 ft | 390 kts | 75° |
| 2026-04-20 19:11 | 32.74198 | -115.58585 | 31928 ft | 391 kts | 75° |
| 2026-04-20 19:12 | 32.74772 | -115.52154 | 31924 ft | 392 kts | 75° |
| 2026-04-20 19:12 | 32.75119 | -115.45639 | 31925 ft | 397 kts | 79° |
| 2026-04-20 19:13 | 32.75232 | -115.39066 | 31927 ft | 398 kts | 79° |
| 2026-04-20 19:13 | 32.75344 | -115.32539 | 31928 ft | 397 kts | 79° |
| 2026-04-20 19:14 | 32.75480 | -115.25983 | 31929 ft | 397 kts | 79° |
| 2026-04-20 19:14 | 32.75626 | -115.19428 | 31931 ft | 396 kts | 79° |
| 2026-04-20 19:15 | 32.75770 | -115.12901 | 31933 ft | 395 kts | 79° |
| 2026-04-20 19:15 | 32.75912 | -115.06369 | 31932 ft | 394 kts | 79° |
| 2026-04-20 19:16 | 32.76048 | -114.99891 | 31925 ft | 394 kts | 79° |
| 2026-04-20 19:16 | 32.76181 | -114.93459 | 31928 ft | 394 kts | 79° |
| 2026-04-20 19:17 | 32.76312 | -114.86942 | 31926 ft | 394 kts | 79° |
| 2026-04-20 19:17 | 32.76439 | -114.80428 | 31934 ft | 394 kts | 79° |
| 2026-04-20 19:18 | 32.76563 | -114.73912 | 31929 ft | 394 kts | 79° |
| 2026-04-20 19:18 | 32.76621 | -114.70668 | 31823 ft | 388 kts | 79° |
| 2026-04-20 19:18 | 32.76678 | -114.67481 | 31275 ft | 386 kts | 79° |
| 2026-04-20 19:18 | 32.76740 | -114.64273 | 30516 ft | 390 kts | 79° |
| 2026-04-20 19:19 | 32.76802 | -114.61028 | 29696 ft | 395 kts | 79° |
| 2026-04-20 19:19 | 32.76858 | -114.57755 | 28889 ft | 398 kts | 79° |
| 2026-04-20 19:19 | 32.76907 | -114.54493 | 28080 ft | 401 kts | 79° |
| 2026-04-20 19:19 | 32.76953 | -114.51169 | 27250 ft | 403 kts | 79° |
| 2026-04-20 19:20 | 32.76999 | -114.47829 | 26409 ft | 405 kts | 79° |
| 2026-04-20 19:20 | 32.77043 | -114.44480 | 25587 ft | 406 kts | 80° |
| 2026-04-20 19:20 | 32.77084 | -114.41150 | 25284 ft | 403 kts | 80° |
| 2026-04-20 19:20 | 32.77129 | -114.37807 | 25164 ft | 403 kts | 79° |
| 2026-04-20 19:21 | 32.77170 | -114.34488 | 25029 ft | 401 kts | 79° |
| 2026-04-20 19:21 | 32.77212 | -114.31167 | 24953 ft | 400 kts | 79° |
| 2026-04-20 19:21 | 32.77253 | -114.27868 | 24940 ft | 399 kts | 79° |
| 2026-04-20 19:21 | 32.77294 | -114.24574 | 24935 ft | 399 kts | 79° |
| 2026-04-20 19:22 | 32.77336 | -114.21265 | 24924 ft | 400 kts | 79° |
| 2026-04-20 19:22 | 32.77376 | -114.17960 | 24928 ft | 400 kts | 79° |
| 2026-04-20 19:22 | 32.77414 | -114.14698 | 24929 ft | 400 kts | 79° |
| 2026-04-20 19:22 | 32.77451 | -114.11394 | 24926 ft | 399 kts | 79° |
| 2026-04-20 19:23 | 32.77488 | -114.08099 | 24930 ft | 399 kts | 79° |
| 2026-04-20 19:23 | 32.77606 | -114.04822 | 24928 ft | 394 kts | 75° |
| 2026-04-20 19:23 | 32.77931 | -114.01597 | 24935 ft | 391 kts | 73° |
| 2026-04-20 19:23 | 32.78317 | -113.98474 | 24931 ft | 391 kts | 72° |
| 2026-04-20 19:24 | 32.78720 | -113.95268 | 24930 ft | 391 kts | 73° |
| 2026-04-20 19:24 | 32.79108 | -113.92055 | 24930 ft | 392 kts | 73° |
| 2026-04-20 19:24 | 32.79477 | -113.88846 | 24922 ft | 389 kts | 73° |
| 2026-04-20 19:24 | 32.79820 | -113.85729 | 24923 ft | 382 kts | 73° |
| 2026-04-20 19:25 | 32.80161 | -113.82595 | 24927 ft | 381 kts | 73° |
| 2026-04-20 19:25 | 32.80503 | -113.79466 | 24936 ft | 382 kts | 73° |
| 2026-04-20 19:25 | 32.80845 | -113.76327 | 24936 ft | 383 kts | 73° |
| 2026-04-20 19:25 | 32.81182 | -113.73198 | 24910 ft | 379 kts | 73° |
| 2026-04-20 19:26 | 32.81665 | -113.70195 | 24482 ft | 360 kts | 63° |
| 2026-04-20 19:26 | 32.82717 | -113.67549 | 23853 ft | 349 kts | 51° |
| 2026-04-20 19:26 | 32.84179 | -113.65284 | 23155 ft | 343 kts | 45° |
| 2026-04-20 19:26 | 32.85757 | -113.63170 | 22550 ft | 340 kts | 44° |
| 2026-04-20 19:27 | 32.87338 | -113.61089 | 21998 ft | 336 kts | 44° |
| 2026-04-20 19:27 | 32.88896 | -113.59038 | 21451 ft | 333 kts | 44° |
| 2026-04-20 19:27 | 32.90436 | -113.56995 | 20875 ft | 330 kts | 45° |
| 2026-04-20 19:27 | 32.91941 | -113.54989 | 20270 ft | 328 kts | 46° |
| 2026-04-20 19:28 | 32.93457 | -113.52957 | 19642 ft | 327 kts | 46° |
| 2026-04-20 19:28 | 32.94963 | -113.50932 | 19013 ft | 326 kts | 47° |
| 2026-04-20 19:28 | 32.96464 | -113.48910 | 18402 ft | 325 kts | 48° |
| 2026-04-20 19:28 | 32.97959 | -113.46893 | 17766 ft | 325 kts | 49° |
| 2026-04-20 19:29 | 32.99455 | -113.44872 | 17119 ft | 325 kts | 50° |
| 2026-04-20 19:29 | 33.00952 | -113.42848 | 16466 ft | 326 kts | 50° |
| 2026-04-20 19:29 | 33.02454 | -113.40818 | 15810 ft | 326 kts | 51° |
| 2026-04-20 19:29 | 33.03956 | -113.38787 | 15177 ft | 327 kts | 51° |
| 2026-04-20 19:30 | 33.04946 | -113.37448 | 15004 ft | 321 kts | 51° |
| 2026-04-20 19:30 | 33.06847 | -113.34882 | 14892 ft | 302 kts | 51° |
| 2026-04-20 19:30 | 33.08210 | -113.33044 | 14803 ft | 289 kts | 52° |
| 2026-04-20 19:30 | 33.09528 | -113.31265 | 14528 ft | 284 kts | 52° |
| 2026-04-20 19:31 | 33.10393 | -113.30090 | 14232 ft | 284 kts | 52° |
| 2026-04-20 19:31 | 33.11684 | -113.28336 | 14096 ft | 275 kts | 52° |
| 2026-04-20 19:31 | 33.12935 | -113.26651 | 13895 ft | 269 kts | 52° |
| 2026-04-20 19:31 | 33.14171 | -113.24983 | 13511 ft | 269 kts | 52° |
| 2026-04-20 19:32 | 33.15415 | -113.23295 | 13115 ft | 270 kts | 52° |
| 2026-04-20 19:32 | 33.16659 | -113.21607 | 12761 ft | 270 kts | 52° |
| 2026-04-20 19:32 | 33.17894 | -113.19931 | 12454 ft | 268 kts | 52° |
| 2026-04-20 19:32 | 33.19126 | -113.18259 | 12114 ft | 267 kts | 52° |
| 2026-04-20 19:33 | 33.20331 | -113.16621 | 11789 ft | 267 kts | 52° |
| 2026-04-20 19:33 | 33.21544 | -113.14974 | 11445 ft | 266 kts | 52° |
| 2026-04-20 19:33 | 33.22767 | -113.13312 | 11124 ft | 265 kts | 52° |
| 2026-04-20 19:33 | 33.23986 | -113.11656 | 10754 ft | 265 kts | 52° |
| 2026-04-20 19:34 | 33.25196 | -113.10015 | 10539 ft | 263 kts | 52° |
| 2026-04-20 19:34 | 33.26400 | -113.08372 | 10193 ft | 262 kts | 53° |
| 2026-04-20 19:34 | 33.27266 | -113.06488 | 9806 ft | 259 kts | 75° |
| 2026-04-20 19:34 | 33.27568 | -113.04376 | 9496 ft | 257 kts | 86° |
| 2026-04-20 19:35 | 33.27634 | -113.02284 | 9176 ft | 257 kts | 88° |
| 2026-04-20 19:35 | 33.27665 | -113.00099 | 8836 ft | 257 kts | 89° |
| 2026-04-20 19:35 | 33.27695 | -112.98017 | 8542 ft | 256 kts | 88° |
| 2026-04-20 19:35 | 33.27732 | -112.95917 | 8436 ft | 248 kts | 88° |
| 2026-04-20 19:36 | 33.27772 | -112.93897 | 8355 ft | 239 kts | 88° |
| 2026-04-20 19:36 | 33.27816 | -112.91943 | 8224 ft | 232 kts | 88° |
| 2026-04-20 19:36 | 33.27861 | -112.90017 | 7939 ft | 232 kts | 88° |
| 2026-04-20 19:36 | 33.27907 | -112.88093 | 7656 ft | 232 kts | 88° |
| 2026-04-20 19:37 | 33.27954 | -112.86163 | 7377 ft | 232 kts | 88° |
| 2026-04-20 19:37 | 33.27999 | -112.84265 | 7109 ft | 231 kts | 88° |
| 2026-04-20 19:37 | 33.28079 | -112.82318 | 6823 ft | 231 kts | 80° |
| 2026-04-20 19:37 | 33.28631 | -112.80510 | 6551 ft | 232 kts | 66° |
| 2026-04-20 19:38 | 33.29295 | -112.78796 | 6486 ft | 223 kts | 67° |
| 2026-04-20 19:38 | 33.29922 | -112.77148 | 6446 ft | 214 kts | 68° |
| 2026-04-20 19:38 | 33.30531 | -112.75536 | 6460 ft | 223 kts | 68° |
| 2026-04-20 19:38 | 33.31199 | -112.73749 | 6487 ft | 246 kts | 67° |
| 2026-04-20 19:39 | 33.31902 | -112.71866 | 6490 ft | 250 kts | 68° |
| 2026-04-20 19:39 | 33.32610 | -112.69973 | 6486 ft | 249 kts | 67° |
| 2026-04-20 19:39 | 33.33313 | -112.68112 | 6611 ft | 240 kts | 67° |
| 2026-04-20 19:39 | 33.34012 | -112.66347 | 6913 ft | 233 kts | 66° |
| 2026-04-20 19:40 | 33.34705 | -112.64601 | 7293 ft | 231 kts | 67° |
| 2026-04-20 19:40 | 33.35362 | -112.62841 | 7838 ft | 231 kts | 68° |
| 2026-04-20 19:40 | 33.35995 | -112.61121 | 8693 ft | 226 kts | 68° |
| 2026-04-20 19:40 | 33.36625 | -112.59455 | 9738 ft | 214 kts | 68° |
| 2026-04-20 19:41 | 33.37231 | -112.57851 | 10548 ft | 212 kts | 68° |
| 2026-04-20 19:41 | 33.37821 | -112.56233 | 10791 ft | 213 kts | 69° |
| 2026-04-20 19:41 | 33.38411 | -112.54526 | 10127 ft | 234 kts | 70° |
| 2026-04-20 19:41 | 33.39047 | -112.52605 | 9199 ft | 260 kts | 70° |
| 2026-04-20 19:42 | 33.39705 | -112.50569 | 8904 ft | 258 kts | 71° |
| 2026-04-20 19:42 | 33.40290 | -112.48647 | 9177 ft | 233 kts | 72° |
| 2026-04-20 19:42 | 33.40789 | -112.46864 | 9164 ft | 222 kts | 74° |
| 2026-04-20 19:42 | 33.41234 | -112.45042 | 8518 ft | 237 kts | 76° |
| 2026-04-20 19:43 | 33.41511 | -112.43732 | 7981 ft | 251 kts | 77° |
| 2026-04-20 19:43 | 33.41988 | -112.40960 | 7592 ft | 249 kts | 81° |
| 2026-04-20 19:43 | 33.42227 | -112.39007 | 7750 ft | 225 kts | 83° |
| 2026-04-20 19:43 | 33.42356 | -112.37200 | 7465 ft | 223 kts | 86° |
| 2026-04-20 19:44 | 33.42404 | -112.35280 | 6658 ft | 239 kts | 89° |
| 2026-04-20 19:44 | 33.42378 | -112.33232 | 5945 ft | 250 kts | 91° |
| 2026-04-20 19:44 | 33.42279 | -112.31188 | 5700 ft | 239 kts | 94° |
| 2026-04-20 19:44 | 33.42102 | -112.29267 | 5561 ft | 226 kts | 97° |
| 2026-04-20 19:45 | 33.41850 | -112.27410 | 5092 ft | 229 kts | 99° |
| 2026-04-20 19:45 | 33.41522 | -112.25501 | 4424 ft | 239 kts | 101° |
| 2026-04-20 19:45 | 33.41134 | -112.23546 | 3954 ft | 239 kts | 99° |
| 2026-04-20 19:45 | 33.41194 | -112.21660 | 3704 ft | 229 kts | 71° |
| 2026-04-20 19:46 | 33.41949 | -112.19957 | 3154 ft | 235 kts | 58° |
| 2026-04-20 19:46 | 33.42825 | -112.18411 | 3029 ft | 212 kts | 57° |
| 2026-04-20 19:46 | 33.43581 | -112.17008 | 3085 ft | 181 kts | 67° |
| 2026-04-20 19:46 | 33.43918 | -112.15681 | 3078 ft | 160 kts | 82° |
| 2026-04-20 19:47 | 33.43976 | -112.14344 | 2661 ft | 163 kts | 89° |
| 2026-04-20 19:47 | 33.43978 | -112.12979 | 2327 ft | 159 kts | 90° |
| 2026-04-20 19:47 | 33.43982 | -112.11774 | 2306 ft | 129 kts | 89° |
| 2026-04-20 19:47 | 33.43992 | -112.10796 | 2124 ft | 111 kts | 88° |
| 2026-04-20 19:48 | 33.44004 | -112.09808 | 1996 ft | 127 kts | 89° |
| 2026-04-20 19:48 | 33.44022 | -112.08701 | 1996 ft | 138 kts | 89° |
| 2026-04-20 19:48 | 33.44043 | -112.07570 | 1807 ft | 134 kts | 89° |
| 2026-04-20 19:48 | 33.44058 | -112.06439 | 1634 ft | 141 kts | 90° |
| 2026-04-20 19:49 | 33.44068 | -112.05257 | 1469 ft | 140 kts | 89° |
| 2026-04-20 19:49 | 33.44086 | -112.04084 | 1318 ft | 144 kts | 90° |
| 2026-04-20 19:49 | 33.44086 | -112.02887 | 1184 ft | 139 kts | 90° |
| 2026-04-20 19:49 | 33.44086 | -112.01814 | 1127 ft | 112 kts | 90° |
| 2026-04-20 19:50 | 33.44085 | -112.01058 | 1130 ft | 70 kts | 90° |
| 2026-04-20 19:50 | 33.44085 | -112.00635 | 1128 ft | 43 kts | 90° |
| 2026-04-20 19:50 | 33.44049 | -112.00479 | 1123 ft | 9 kts | 133° |
| 2026-04-20 19:50 | 33.44010 | -112.00433 | 1126 ft | 8 kts | 136° |
| 2026-04-20 19:51 | 33.43975 | -112.00392 | 1119 ft | 5 kts | 136° |
| 2026-04-20 19:51 | 33.43967 | -112.00384 | 1122 ft | 0 kts | 136° |
| 2026-04-20 19:51 | 33.43965 | -112.00382 | 1125 ft | 0 kts | 136° |
| 2026-04-20 19:52 | 33.43962 | -112.00378 | 1125 ft | 1 kts | 136° |
| 2026-04-20 19:52 | 33.43958 | -112.00373 | 1125 ft | 1 kts | 140° |
| 2026-04-20 19:52 | 33.43951 | -112.00371 | 1125 ft | 1 kts | 165° |
| 2026-04-20 19:52 | 33.43922 | -112.00376 | 1120 ft | 9 kts | 167° |
| 2026-04-20 19:53 | 33.43905 | -112.00306 | 1124 ft | 9 kts | 90° |
| 2026-04-20 19:53 | 33.43904 | -112.00248 | 1124 ft | 6 kts | 90° |
| 2026-04-20 19:53 | 33.43904 | -112.00200 | 1124 ft | 6 kts | 91° |
| 2026-04-20 19:53 | 33.43904 | -112.00112 | 1124 ft | 12 kts | 91° |
| 2026-04-20 19:54 | 33.43860 | -112.00087 | 1119 ft | 7 kts | 225° |
| 2026-04-20 19:54 | 33.43830 | -112.00130 | 1121 ft | 1 kts | 231° |
| 2026-04-20 19:54 | 33.43827 | -112.00135 | 1121 ft | 0 kts | 231° |
| 2026-04-20 19:54 | 33.43828 | -112.00134 | 1120 ft | 0 kts | 231° |
| 2026-04-20 19:55 | 33.43832 | -112.00128 | 1121 ft | 1 kts | 230° |
| 2026-04-20 19:55 | 33.43828 | -112.00134 | 1120 ft | 1 kts | 231° |
| 2026-04-20 19:55 | 33.43827 | -112.00134 | 1121 ft | 0 kts | 232° |